createdAt,value
2023-03-07T00:00:20.871Z,97788.55
2023-03-07T00:03:12.107Z,97787.77
2023-03-07T00:05:41.039Z,97789.06
2023-03-07T00:08:09.736Z,97784.77
2023-03-07T00:10:37.985Z,97783.48
2023-03-07T00:13:06.213Z,97784.14
2023-03-07T00:15:34.077Z,97786.92
2023-03-07T00:18:02.007Z,97783.48
2023-03-07T00:20:29.925Z,97786.33
2023-03-07T00:22:57.856Z,97787.51
2023-03-07T00:25:25.769Z,97783.66
2023-03-07T00:27:53.653Z,97782.53
2023-03-07T00:30:21.603Z,97779.82
2023-03-07T00:32:49.505Z,97778.23
2023-03-07T00:35:17.376Z,97773.58
2023-03-07T00:37:45.225Z,97770.09
2023-03-07T00:40:13.381Z,97767.04
2023-03-07T00:42:41.273Z,97765.61
2023-03-07T00:45:09.452Z,97760.39
2023-03-07T00:47:37.344Z,97751.56
2023-03-07T00:50:05.919Z,97747.14
2023-03-07T00:52:33.839Z,97745.44
2023-03-07T00:55:02.092Z,97747.04
2023-03-07T00:57:30.203Z,97746.52
2023-03-07T00:59:58.120Z,97743.23
2023-03-07T01:02:26.329Z,97741.67
2023-03-07T01:04:54.330Z,97738.46
2023-03-07T01:07:22.190Z,97738.73
2023-03-07T01:09:51.538Z,97735.45
2023-03-07T01:12:19.764Z,97733.36
2023-03-07T01:14:51.071Z,97732.09
2023-03-07T01:17:19.004Z,97730.55
2023-03-07T01:19:46.938Z,97731.16
2023-03-07T01:22:15.067Z,97725.73
2023-03-07T01:24:43.253Z,97725.46
2023-03-07T01:27:11.452Z,97722.09
2023-03-07T01:29:39.378Z,97719.29
2023-03-07T01:32:07.692Z,97723.02
2023-03-07T01:34:36.692Z,97716.38
2023-03-07T01:37:04.574Z,97710.84
2023-03-07T01:39:32.864Z,97707.27
2023-03-07T01:42:07.466Z,97707.04
2023-03-07T01:45:07.194Z,97705.71
2023-03-07T01:47:44.800Z,97703.17
2023-03-07T01:50:16.820Z,97698.94
2023-03-07T01:52:53.583Z,97694.91
2023-03-07T01:55:25.624Z,97697.27
2023-03-07T01:57:58.931Z,97691.44
2023-03-07T02:00:30.041Z,97687.30
2023-03-07T02:03:17.646Z,97682.42
2023-03-07T02:05:51.177Z,97675.95
2023-03-07T02:08:22.228Z,97674.86
2023-03-07T02:10:50.237Z,97678.77
2023-03-07T02:13:18.139Z,97674.56
2023-03-07T02:15:47.209Z,97673.98
2023-03-07T02:18:20.963Z,97670.08
2023-03-07T02:21:12.373Z,97669.52
2023-03-07T02:23:43.284Z,97668.64
2023-03-07T02:26:21.085Z,97664.02
2023-03-07T02:28:49.194Z,97662.09
2023-03-07T02:31:17.452Z,97659.48
2023-03-07T02:33:45.559Z,97658.61
2023-03-07T02:36:17.355Z,97657.19
2023-03-07T02:38:56.984Z,97653.13
2023-03-07T02:41:30.156Z,97649.39
2023-03-07T02:43:58.836Z,97648.14
2023-03-07T02:46:26.831Z,97643.71
2023-03-07T02:48:55.077Z,97640.18
2023-03-07T02:51:23.399Z,97643.68
2023-03-07T02:53:51.789Z,97639.20
2023-03-07T02:56:19.708Z,97640.10
2023-03-07T02:58:47.795Z,97633.22
2023-03-07T03:01:15.774Z,97626.64
2023-03-07T03:03:44.734Z,97624.27
2023-03-07T03:06:14.862Z,97622.73
2023-03-07T03:08:42.781Z,97620.77
2023-03-07T03:11:11.019Z,97619.65
2023-03-07T03:13:39.217Z,97617.16
2023-03-07T03:16:07.938Z,97612.52
2023-03-07T03:18:35.881Z,97610.33
2023-03-07T03:21:08.408Z,97610.71
2023-03-07T03:23:36.516Z,97609.06
2023-03-07T03:26:07.896Z,97606.13
2023-03-07T03:28:36.997Z,97599.92
2023-03-07T03:31:08.607Z,97596.02
2023-03-07T03:33:37.968Z,97596.88
2023-03-07T03:36:12.262Z,97598.75
2023-03-07T03:38:40.649Z,97598.03
2023-03-07T03:41:16.140Z,97598.02
2023-03-07T03:43:44.858Z,97592.10
2023-03-07T03:46:13.309Z,97590.81
2023-03-07T03:48:41.305Z,97588.08
2023-03-07T03:51:12.079Z,97588.11
2023-03-07T03:53:40.818Z,97583.94
2023-03-07T03:56:14.458Z,97584.09
2023-03-07T03:58:42.855Z,97581.30
2023-03-07T04:01:12.483Z,97576.12
2023-03-07T04:03:43.513Z,97573.64
2023-03-07T04:06:23.539Z,97575.34
2023-03-07T04:08:53.093Z,97571.73
2023-03-07T04:11:22.825Z,97572.91
2023-03-07T04:13:51.246Z,97570.21
2023-03-07T04:16:20.219Z,97567.08
2023-03-07T04:18:50.305Z,97564.13
2023-03-07T04:21:19.662Z,97562.60
2023-03-07T04:23:50.440Z,97563.17
2023-03-07T04:26:18.637Z,97559.69
2023-03-07T04:28:46.581Z,97556.91
2023-03-07T04:31:24.555Z,97557.79
2023-03-07T04:33:54.500Z,97550.77
2023-03-07T04:36:24.044Z,97552.48
2023-03-07T04:38:52.805Z,97549.41
2023-03-07T04:41:23.688Z,97546.51
2023-03-07T04:43:55.958Z,97545.36
2023-03-07T04:46:25.964Z,97544.31
2023-03-07T04:48:54.494Z,97546.52
2023-03-07T04:51:23.489Z,97541.91
2023-03-07T04:53:51.849Z,97540.58
2023-03-07T04:56:20.034Z,97541.33
2023-03-07T04:58:48.500Z,97536.04
2023-03-07T05:01:18.686Z,97534.48
2023-03-07T05:03:47.365Z,97530.98
2023-03-07T05:06:17.215Z,97526.31
2023-03-07T05:08:49.714Z,97524.23
2023-03-07T05:11:17.786Z,97522.86
2023-03-07T05:13:45.908Z,97518.64
2023-03-07T05:16:17.834Z,97513.66
2023-03-07T05:18:46.110Z,97510.38
2023-03-07T05:21:14.396Z,97508.84
2023-03-07T05:23:42.335Z,97503.97
2023-03-07T05:26:12.006Z,97503.60
2023-03-07T05:28:40.033Z,97500.64
2023-03-07T05:31:08.020Z,97495.45
2023-03-07T05:33:36.217Z,97492.66
2023-03-07T05:36:04.588Z,97488.11
2023-03-07T05:38:34.870Z,97483.91
2023-03-07T05:41:03.185Z,97484.84
2023-03-07T05:43:31.103Z,97479.67
2023-03-07T05:45:58.994Z,97476.48
2023-03-07T05:48:27.494Z,97471.52
2023-03-07T05:50:59.603Z,97466.70
2023-03-07T05:53:27.818Z,97465.18
2023-03-07T05:55:56.448Z,97460.35
2023-03-07T05:58:24.695Z,97459.88
2023-03-07T06:00:52.612Z,97458.64
2023-03-07T06:03:21.003Z,97452.43
2023-03-07T06:05:50.320Z,97451.05
2023-03-07T06:08:18.905Z,97449.95
2023-03-07T06:10:52.243Z,97451.95
2023-03-07T06:13:23.847Z,97452.86
2023-03-07T06:15:53.336Z,97444.95
2023-03-07T06:18:23.587Z,97449.61
2023-03-07T06:20:56.874Z,97443.61
2023-03-07T06:23:26.225Z,97443.83
2023-03-07T06:25:54.198Z,97447.64
2023-03-07T06:28:22.954Z,97445.53
2023-03-07T06:30:51.483Z,97446.45
2023-03-07T06:33:19.822Z,97446.55
2023-03-07T06:35:48.239Z,97442.48
2023-03-07T06:38:17.545Z,97439.38
2023-03-07T06:40:45.975Z,97439.64
2023-03-07T06:43:14.281Z,97434.95
2023-03-07T06:45:42.209Z,97432.00
2023-03-07T06:48:10.824Z,97423.71
2023-03-07T06:50:38.913Z,97420.42
2023-03-07T06:53:06.760Z,97413.24
2023-03-07T06:55:34.730Z,97406.80
2023-03-07T06:58:03.432Z,97406.00
2023-03-07T07:00:31.681Z,97402.53
2023-03-07T07:02:59.906Z,97403.36
2023-03-07T07:05:28.421Z,97396.53
2023-03-07T07:07:56.325Z,97398.21
2023-03-07T07:10:24.468Z,97401.29
2023-03-07T07:12:56.662Z,97399.21
2023-03-07T07:15:26.782Z,97396.14
2023-03-07T07:17:54.688Z,97389.63
2023-03-07T07:20:23.731Z,97385.80
2023-03-07T07:22:51.709Z,97386.34
2023-03-07T07:25:20.721Z,97384.42
2023-03-07T07:27:48.716Z,97382.16
2023-03-07T07:30:16.978Z,97385.51
2023-03-07T07:32:45.323Z,97383.93
2023-03-07T07:35:13.462Z,97387.00
2023-03-07T07:37:41.467Z,97387.80
2023-03-07T07:40:10.701Z,97385.65
2023-03-07T07:42:38.891Z,97383.98
2023-03-07T07:45:16.803Z,97382.54
2023-03-07T07:47:44.887Z,97382.48
2023-03-07T07:50:14.240Z,97385.42
2023-03-07T07:52:42.975Z,97382.55
2023-03-07T07:55:11.192Z,97382.83
2023-03-07T07:57:39.122Z,97379.42
2023-03-07T08:00:09.071Z,97373.36
2023-03-07T08:02:40.240Z,97371.48
2023-03-07T08:05:12.645Z,97364.12
2023-03-07T08:07:40.617Z,97362.41
2023-03-07T08:10:09.342Z,97356.32
2023-03-07T08:12:37.594Z,97356.42
2023-03-07T08:15:06.059Z,97354.51
2023-03-07T08:17:34.002Z,97348.92
2023-03-07T08:20:08.147Z,97335.23
2023-03-07T08:22:39.313Z,97336.14
2023-03-07T08:25:08.163Z,97340.48
2023-03-07T08:27:36.026Z,97336.84
2023-03-07T08:30:04.526Z,97334.37
2023-03-07T08:32:32.503Z,97337.88
2023-03-07T08:35:00.545Z,97334.75
2023-03-07T08:37:28.418Z,97330.27
2023-03-07T08:39:56.244Z,97329.40
2023-03-07T08:42:24.230Z,97329.45
2023-03-07T08:44:52.193Z,97323.55
2023-03-07T08:47:20.062Z,97324.52
2023-03-07T08:49:47.955Z,97322.55
2023-03-07T08:52:15.809Z,97324.45
2023-03-07T08:54:43.792Z,97325.16
2023-03-07T08:57:11.786Z,97324.08
2023-03-07T08:59:39.652Z,97320.50
2023-03-07T09:02:09.476Z,97323.21
2023-03-07T09:04:37.879Z,97328.27
2023-03-07T09:07:05.837Z,97331.06
2023-03-07T09:09:33.772Z,97327.47
2023-03-07T09:12:01.612Z,97329.62
2023-03-07T09:14:29.534Z,97333.55
2023-03-07T09:16:57.414Z,97334.26
2023-03-07T09:19:28.273Z,97331.31
2023-03-07T09:21:56.155Z,97334.02
2023-03-07T09:24:24.222Z,97332.33
2023-03-07T09:26:53.017Z,97329.80
2023-03-07T09:29:20.946Z,97329.16
2023-03-07T09:31:48.894Z,97329.70
2023-03-07T09:34:16.918Z,97318.69
2023-03-07T09:36:44.999Z,97322.23
2023-03-07T09:39:16.713Z,97325.13
2023-03-07T09:41:57.559Z,97320.02
2023-03-07T09:44:47.067Z,97316.67
2023-03-07T09:47:47.995Z,97306.18
2023-03-07T09:50:59.304Z,97305.36
2023-03-07T09:53:50.625Z,97305.45
2023-03-07T09:56:30.081Z,97305.00
2023-03-07T09:59:22.470Z,97301.55
2023-03-07T10:02:01.230Z,97294.80
2023-03-07T10:04:42.821Z,97297.00
2023-03-07T10:07:14.982Z,97290.61
2023-03-07T10:09:44.943Z,97285.73
2023-03-07T10:12:43.951Z,97286.30
2023-03-07T10:15:35.494Z,97278.02
2023-03-07T10:18:15.795Z,97273.25
2023-03-07T10:21:25.643Z,97275.39
2023-03-07T10:24:26.184Z,97275.91
2023-03-07T10:27:07.819Z,97276.70
2023-03-07T10:29:48.243Z,97272.55
2023-03-07T10:32:40.375Z,97270.71
2023-03-07T10:35:11.192Z,97268.98
2023-03-07T10:38:03.261Z,97267.40
2023-03-07T10:40:44.250Z,97253.14
2023-03-07T10:43:31.878Z,97254.84
2023-03-07T10:46:27.867Z,97255.88
2023-03-07T10:49:11.923Z,97253.72
2023-03-07T10:52:04.132Z,97253.89
2023-03-07T10:54:37.392Z,97249.83
2023-03-07T10:57:17.214Z,97249.89
2023-03-07T10:59:48.505Z,97249.92
2023-03-07T11:02:28.667Z,97244.02
2023-03-07T11:04:58.053Z,97238.05
2023-03-07T11:07:28.003Z,97230.83
2023-03-07T11:09:58.432Z,97231.98
2023-03-07T11:12:29.270Z,97229.92
2023-03-07T11:15:11.252Z,97228.77
2023-03-07T11:17:48.654Z,97228.07
2023-03-07T11:20:19.375Z,97227.95
2023-03-07T11:22:47.466Z,97225.47
2023-03-07T11:25:25.837Z,97226.21
2023-03-07T11:27:56.888Z,97223.45
2023-03-07T11:31:16.184Z,97216.96
2023-03-07T11:34:26.470Z,97210.21
2023-03-07T11:37:14.807Z,97221.00
2023-03-07T11:40:21.174Z,97219.27
2023-03-07T11:43:04.346Z,97218.86
2023-03-07T11:45:54.085Z,97212.67
2023-03-07T11:48:37.208Z,97211.46
2023-03-07T11:51:11.009Z,97211.45
2023-03-07T11:53:50.676Z,97211.83
2023-03-07T11:56:36.569Z,97197.59
2023-03-07T11:59:26.164Z,97200.61
2023-03-07T12:01:56.370Z,97200.70
2023-03-07T12:04:52.838Z,97190.76
2023-03-07T12:07:35.944Z,97187.70
2023-03-07T12:10:09.595Z,97185.80
2023-03-07T12:12:37.366Z,97173.95
2023-03-07T12:15:23.374Z,97182.16
2023-03-07T12:18:04.274Z,97186.14
2023-03-07T12:21:10.738Z,97178.92
2023-03-07T12:23:39.228Z,97174.83
2023-03-07T12:26:17.027Z,97180.00
2023-03-07T12:28:55.964Z,97175.48
2023-03-07T12:31:32.384Z,97171.02
2023-03-07T12:34:17.357Z,97173.54
2023-03-07T12:37:00.950Z,97176.98
2023-03-07T12:39:32.289Z,97176.20
2023-03-07T12:42:15.426Z,97177.41
2023-03-07T12:44:49.543Z,97169.98
2023-03-07T12:47:50.506Z,97165.65
2023-03-07T12:50:28.917Z,97163.34
2023-03-07T12:53:35.398Z,97162.92
2023-03-07T12:56:33.895Z,97158.18
2023-03-07T12:59:14.886Z,97150.55
2023-03-07T13:01:47.459Z,97148.70
2023-03-07T13:04:26.290Z,97150.50
2023-03-07T13:07:00.090Z,97139.34
2023-03-07T13:09:28.552Z,97144.95
2023-03-07T13:12:08.848Z,97136.56
2023-03-07T13:14:51.480Z,97133.44
2023-03-07T13:17:42.742Z,97132.41
2023-03-07T13:20:17.647Z,97134.52
2023-03-07T13:22:45.519Z,97132.37
2023-03-07T13:25:19.490Z,97127.15
2023-03-07T13:27:51.685Z,97116.95
2023-03-07T13:30:23.855Z,97124.11
2023-03-07T13:32:51.820Z,97123.13
2023-03-07T13:35:29.236Z,97121.04
2023-03-07T13:38:15.638Z,97123.38
2023-03-07T13:40:43.549Z,97123.23
2023-03-07T13:43:25.633Z,97125.01
2023-03-07T13:46:26.258Z,97119.62
2023-03-07T13:48:54.321Z,97119.36
2023-03-07T13:51:22.596Z,97115.05
2023-03-07T13:54:00.489Z,97113.13
2023-03-07T13:56:35.039Z,97110.85
2023-03-07T13:59:14.948Z,97110.36
2023-03-07T14:01:48.107Z,97104.19
2023-03-07T14:04:33.147Z,97101.65
2023-03-07T14:07:13.005Z,97099.56
2023-03-07T14:09:44.879Z,97097.77
2023-03-07T14:12:34.386Z,97097.33
2023-03-07T14:15:23.378Z,97092.64
2023-03-07T14:18:20.206Z,97090.80
2023-03-07T14:20:53.857Z,97087.90
2023-03-07T14:23:43.891Z,97079.28
2023-03-07T14:26:25.048Z,97078.84
2023-03-07T14:29:12.689Z,97085.70
2023-03-07T14:31:43.018Z,97075.64
2023-03-07T14:34:28.654Z,97074.48
2023-03-07T14:36:58.586Z,97074.79
2023-03-07T14:39:51.546Z,97082.11
2023-03-07T14:42:36.539Z,97070.26
2023-03-07T14:45:33.858Z,97070.05
2023-03-07T14:48:10.942Z,97071.46
2023-03-07T14:50:44.104Z,97072.06
2023-03-07T14:53:19.217Z,97082.95
2023-03-07T14:55:50.050Z,97079.63
2023-03-07T14:58:23.822Z,97082.13
2023-03-07T15:01:06.168Z,97081.46
2023-03-07T15:03:34.241Z,97081.44
2023-03-07T15:06:03.104Z,97073.79
2023-03-07T15:08:38.357Z,97074.95
2023-03-07T15:11:25.392Z,97074.65
2023-03-07T15:14:05.011Z,97067.27
2023-03-07T15:16:46.602Z,97065.77
2023-03-07T15:19:22.061Z,97070.13
2023-03-07T15:21:54.530Z,97062.42
2023-03-07T15:24:43.102Z,97062.27
2023-03-07T15:27:14.757Z,97060.48
2023-03-07T15:29:47.564Z,97056.64
2023-03-07T15:32:37.057Z,97055.48
2023-03-07T15:35:08.074Z,97059.29
2023-03-07T15:37:52.313Z,97056.95
2023-03-07T15:40:20.123Z,97056.51
2023-03-07T15:42:49.327Z,97052.89
2023-03-07T15:46:01.778Z,97048.73
2023-03-07T15:48:43.604Z,97052.90
2023-03-07T15:51:16.880Z,97054.85
2023-03-07T15:53:53.437Z,97053.51
2023-03-07T15:56:30.681Z,97043.84
2023-03-07T15:59:02.666Z,97047.20
2023-03-07T16:01:30.707Z,97038.63
2023-03-07T16:04:04.380Z,97045.37
2023-03-07T16:06:32.243Z,97046.21
2023-03-07T16:09:00.180Z,97044.48
2023-03-07T16:11:28.236Z,97048.52
2023-03-07T16:13:56.263Z,97049.75
2023-03-07T16:16:27.125Z,97051.89
2023-03-07T16:18:57.714Z,97048.86
2023-03-07T16:21:26.437Z,97050.64
2023-03-07T16:23:54.525Z,97052.54
2023-03-07T16:26:24.636Z,97054.29
2023-03-07T16:28:54.498Z,97056.60
2023-03-07T16:31:22.746Z,97051.60
2023-03-07T16:33:50.662Z,97048.70
2023-03-07T16:36:18.766Z,97050.48
2023-03-07T16:38:46.927Z,97052.96
2023-03-07T16:41:20.641Z,97054.75
2023-03-07T16:43:56.069Z,97051.48
2023-03-07T16:46:24.648Z,97056.23
2023-03-07T16:48:52.586Z,97068.90
2023-03-07T16:51:23.705Z,97064.29
2023-03-07T16:53:52.295Z,97074.48
2023-03-07T16:56:32.456Z,97079.95
2023-03-07T16:59:01.233Z,97078.98
2023-03-07T17:01:29.264Z,97082.44
2023-03-07T17:03:57.380Z,97083.47
2023-03-07T17:06:38.526Z,97089.06
2023-03-07T17:09:11.840Z,97086.33
2023-03-07T17:11:45.373Z,97090.66
2023-03-07T17:14:15.240Z,97093.75
2023-03-07T17:16:50.240Z,97096.19
2023-03-07T17:19:28.116Z,97099.81
2023-03-07T17:21:58.690Z,97100.92
2023-03-07T17:24:29.169Z,97101.10
2023-03-07T17:27:00.559Z,97101.44
2023-03-07T17:29:37.500Z,97104.47
2023-03-07T17:32:05.690Z,97106.58
2023-03-07T17:34:35.708Z,97108.22
2023-03-07T17:37:04.838Z,97106.29
2023-03-07T17:39:34.418Z,97104.19
2023-03-07T17:42:03.366Z,97108.16
2023-03-07T17:44:32.613Z,97115.02
2023-03-07T17:47:01.010Z,97109.11
2023-03-07T17:49:37.201Z,97109.06
2023-03-07T17:52:06.548Z,97107.92
2023-03-07T17:54:35.029Z,97105.98
2023-03-07T17:57:03.506Z,97105.52
2023-03-07T17:59:32.872Z,97108.25
2023-03-07T18:02:01.179Z,97110.77
2023-03-07T18:04:31.338Z,97110.65
2023-03-07T18:06:59.834Z,97107.05
2023-03-07T18:09:27.735Z,97111.23
2023-03-07T18:11:55.770Z,97112.64
2023-03-07T18:14:24.194Z,97113.70
2023-03-07T18:16:52.474Z,97109.16
2023-03-07T18:19:26.699Z,97106.64
2023-03-07T18:21:55.535Z,97110.62
2023-03-07T18:24:26.477Z,97104.38
2023-03-07T18:26:55.844Z,97102.28
2023-03-07T18:29:23.940Z,97107.30
2023-03-07T18:31:52.780Z,97103.09
2023-03-07T18:34:21.438Z,97107.74
2023-03-07T18:36:51.790Z,97101.83
2023-03-07T18:39:23.823Z,97103.41
2023-03-07T18:41:51.910Z,97105.55
2023-03-07T18:44:19.868Z,97105.29
2023-03-07T18:46:47.962Z,97104.32
2023-03-07T18:49:16.275Z,97103.70
2023-03-07T18:51:46.081Z,97102.90
2023-03-07T18:54:14.219Z,97102.08
2023-03-07T18:56:45.409Z,97095.88
2023-03-07T18:59:14.554Z,97098.36
2023-03-07T19:01:43.022Z,97099.98
2023-03-07T19:04:12.389Z,97098.72
2023-03-07T19:06:45.157Z,97099.30
2023-03-07T19:09:18.972Z,97097.65
2023-03-07T19:11:48.096Z,97096.25
2023-03-07T19:14:16.277Z,97102.20
2023-03-07T19:16:44.728Z,97107.94
2023-03-07T19:19:12.736Z,97103.86
2023-03-07T19:21:40.752Z,97102.78
2023-03-07T19:24:11.373Z,97104.98
2023-03-07T19:26:40.940Z,97104.75
2023-03-07T19:29:11.154Z,97107.32
2023-03-07T19:31:43.732Z,97111.30
2023-03-07T19:34:12.144Z,97110.16
2023-03-07T19:36:41.670Z,97114.11
2023-03-07T19:39:15.010Z,97112.61
2023-03-07T19:41:45.422Z,97113.57
2023-03-07T19:44:14.355Z,97113.96
2023-03-07T19:46:46.232Z,97115.45
2023-03-07T19:49:17.387Z,97115.55
2023-03-07T19:51:45.329Z,97118.20
2023-03-07T19:54:14.427Z,97117.30
2023-03-07T19:56:44.455Z,97117.27
2023-03-07T19:59:13.133Z,97110.62
2023-03-07T20:01:41.538Z,97109.61
2023-03-07T20:04:12.320Z,97112.61
2023-03-07T20:06:42.367Z,97113.70
2023-03-07T20:09:12.877Z,97116.23
2023-03-07T20:11:44.663Z,97119.51
2023-03-07T20:14:12.827Z,97122.64
2023-03-07T20:16:41.113Z,97132.33
2023-03-07T20:19:09.707Z,97131.46
2023-03-07T20:21:37.763Z,97136.52
2023-03-07T20:24:07.115Z,97139.23
2023-03-07T20:26:37.801Z,97141.23
2023-03-07T20:29:08.557Z,97142.58
2023-03-07T20:31:37.065Z,97146.78
2023-03-07T20:34:05.705Z,97143.81
2023-03-07T20:36:36.094Z,97143.61
2023-03-07T20:39:10.149Z,97150.04
2023-03-07T20:41:38.017Z,97150.55
2023-03-07T20:44:08.160Z,97149.42
2023-03-07T20:46:38.353Z,97151.58
2023-03-07T20:49:06.458Z,97152.36
2023-03-07T20:51:36.907Z,97154.76
2023-03-07T20:54:16.628Z,97153.13
2023-03-07T20:56:46.918Z,97158.67
2023-03-07T20:59:17.952Z,97164.70
2023-03-07T21:01:46.630Z,97175.97
2023-03-07T21:04:17.650Z,97183.89
2023-03-07T21:06:46.896Z,97186.52
2023-03-07T21:09:17.301Z,97190.73
2023-03-07T21:11:49.029Z,97191.52
2023-03-07T21:14:19.368Z,97192.77
2023-03-07T21:16:47.359Z,97194.34
2023-03-07T21:19:15.496Z,97196.31
2023-03-07T21:21:43.494Z,97196.73
2023-03-07T21:24:12.437Z,97199.19
2023-03-07T21:26:40.453Z,97207.66
2023-03-07T21:29:09.143Z,97207.88
2023-03-07T21:31:38.751Z,97209.98
2023-03-07T21:34:10.425Z,97208.08
2023-03-07T21:36:38.580Z,97210.08
2023-03-07T21:39:09.780Z,97212.68
2023-03-07T21:41:38.064Z,97217.45
2023-03-07T21:44:06.153Z,97222.42
2023-03-07T21:46:34.279Z,97220.55
2023-03-07T21:49:02.749Z,97223.63
2023-03-07T21:51:30.684Z,97222.27
2023-03-07T21:53:58.904Z,97219.36
2023-03-07T21:56:26.847Z,97214.17
2023-03-07T21:58:54.740Z,97209.66
2023-03-07T22:01:28.275Z,97214.11
2023-03-07T22:03:57.674Z,97214.40
2023-03-07T22:06:26.858Z,97217.35
2023-03-07T22:08:54.825Z,97218.61
2023-03-07T22:11:22.994Z,97214.50
2023-03-07T22:13:50.909Z,97216.64
2023-03-07T22:16:20.615Z,97218.20
2023-03-07T22:18:55.846Z,97214.44
2023-03-07T22:21:27.706Z,97216.50
2023-03-07T22:23:58.021Z,97219.09
2023-03-07T22:26:27.783Z,97221.58
2023-03-07T22:28:56.008Z,97219.21
2023-03-07T22:31:24.807Z,97219.86
2023-03-07T22:33:52.732Z,97219.64
2023-03-07T22:39:35.992Z,97222.63
2023-03-07T22:42:03.895Z,97224.97
2023-03-07T22:44:31.862Z,97226.45
2023-03-07T22:46:59.858Z,97225.91
2023-03-07T22:49:27.783Z,97227.18
2023-03-07T22:51:55.996Z,97230.90
2023-03-07T22:54:24.050Z,97230.61
2023-03-07T22:56:51.951Z,97233.46
2023-03-07T22:59:19.849Z,97235.19
2023-03-07T23:01:47.789Z,97237.91
2023-03-07T23:04:15.640Z,97240.55
2023-03-07T23:06:43.512Z,97241.83
2023-03-07T23:09:11.470Z,97243.31
2023-03-07T23:11:40.591Z,97243.73
2023-03-07T23:14:09.548Z,97244.68
2023-03-07T23:16:39.294Z,97246.13
2023-03-07T23:19:07.160Z,97248.73
2023-03-07T23:21:35.121Z,97249.80
2023-03-07T23:24:03.924Z,97254.41
2023-03-07T23:26:35.161Z,97258.25
2023-03-07T23:29:05.403Z,97259.23
2023-03-07T23:31:36.527Z,97264.13
2023-03-07T23:34:08.769Z,97267.70
2023-03-07T23:36:36.678Z,97273.09
2023-03-07T23:39:04.616Z,97279.58
2023-03-07T23:41:32.471Z,97282.88
2023-03-07T23:44:01.043Z,97286.17
2023-03-07T23:46:29.720Z,97283.10
2023-03-07T23:48:58.484Z,97283.08
2023-03-07T23:51:27.238Z,97288.38
2023-03-07T23:53:55.431Z,97290.22
2023-03-07T23:56:23.437Z,97289.75
2023-03-07T23:58:52.167Z,97290.65
